sensor_id;sensor_type;location;lat;lon;timestamp;P1;durP1;ratioP1;P2;durP2;ratioP2
32094;SDS011;18608;53.688;10.748;2022-10-15T00:00:45;7.73;;;6.30;;
32094;SDS011;18608;53.688;10.748;2022-10-15T00:03:11;8.53;;;6.23;;
32094;SDS011;18608;53.688;10.748;2022-10-15T00:05:37;14.07;;;6.03;;
32094;SDS011;18608;53.688;10.748;2022-10-15T00:08:04;14.47;;;6.00;;
32094;SDS011;18608;53.688;10.748;2022-10-15T00:10:30;7.53;;;6.47;;
32094;SDS011;18608;53.688;10.748;2022-10-15T00:12:56;7.70;;;6.07;;
32094;SDS011;18608;53.688;10.748;2022-10-15T00:15:22;6.83;;;6.00;;
32094;SDS011;18608;53.688;10.748;2022-10-15T00:17:47;7.80;;;6.23;;
32094;SDS011;18608;53.688;10.748;2022-10-15T00:20:14;7.67;;;6.13;;
32094;SDS011;18608;53.688;10.748;2022-10-15T00:22:40;7.30;;;6.10;;
32094;SDS011;18608;53.688;10.748;2022-10-15T00:25:06;13.83;;;7.90;;
32094;SDS011;18608;53.688;10.748;2022-10-15T00:27:32;7.33;;;5.90;;
32094;SDS011;18608;53.688;10.748;2022-10-15T00:29:59;12.60;;;6.40;;
32094;SDS011;18608;53.688;10.748;2022-10-15T00:32:27;13.40;;;6.30;;
32094;SDS011;18608;53.688;10.748;2022-10-15T00:34:53;9.10;;;7.03;;
32094;SDS011;18608;53.688;10.748;2022-10-15T00:37:19;8.43;;;7.10;;
32094;SDS011;18608;53.688;10.748;2022-10-15T00:39:45;9.67;;;6.90;;
32094;SDS011;18608;53.688;10.748;2022-10-15T00:42:11;11.30;;;7.40;;
32094;SDS011;18608;53.688;10.748;2022-10-15T00:47:19;10.63;;;6.93;;
32094;SDS011;18608;53.688;10.748;2022-10-15T00:50:09;10.43;;;6.67;;
32094;SDS011;18608;53.688;10.748;2022-10-15T00:55:36;9.67;;;7.50;;
32094;SDS011;18608;53.688;10.748;2022-10-15T00:58:06;10.50;;;7.13;;
32094;SDS011;18608;53.688;10.748;2022-10-15T01:00:34;11.20;;;7.10;;
32094;SDS011;18608;53.688;10.748;2022-10-15T01:03:00;10.17;;;7.07;;
32094;SDS011;18608;53.688;10.748;2022-10-15T01:05:25;9.70;;;7.07;;
32094;SDS011;18608;53.688;10.748;2022-10-15T01:07:51;10.77;;;7.17;;
32094;SDS011;18608;53.688;10.748;2022-10-15T01:10:18;8.30;;;6.80;;
32094;SDS011;18608;53.688;10.748;2022-10-15T01:13:01;15.20;;;8.57;;
32094;SDS011;18608;53.688;10.748;2022-10-15T01:18:09;12.77;;;7.43;;
32094;SDS011;18608;53.688;10.748;2022-10-15T01:31:51;11.67;;;7.73;;
32094;SDS011;18608;53.688;10.748;2022-10-15T01:37:24;11.90;;;8.87;;
32094;SDS011;18608;53.688;10.748;2022-10-15T01:42:44;13.03;;;7.77;;
32094;SDS011;18608;53.688;10.748;2022-10-15T01:45:18;13.83;;;9.33;;
32094;SDS011;18608;53.688;10.748;2022-10-15T01:47:53;13.53;;;8.40;;
32094;SDS011;18608;53.688;10.748;2022-10-15T01:50:22;12.90;;;9.33;;
32094;SDS011;18608;53.688;10.748;2022-10-15T01:52:51;16.73;;;8.77;;
32094;SDS011;18608;53.688;10.748;2022-10-15T01:55:20;14.27;;;9.53;;
32094;SDS011;18608;53.688;10.748;2022-10-15T01:57:48;19.73;;;8.93;;
32094;SDS011;18608;53.688;10.748;2022-10-15T02:00:15;13.53;;;8.83;;
32094;SDS011;18608;53.688;10.748;2022-10-15T02:02:41;11.97;;;8.80;;
32094;SDS011;18608;53.688;10.748;2022-10-15T02:05:08;15.87;;;9.93;;
32094;SDS011;18608;53.688;10.748;2022-10-15T02:10:38;15.33;;;9.40;;
32094;SDS011;18608;53.688;10.748;2022-10-15T02:16:13;20.00;;;9.77;;
32094;SDS011;18608;53.688;10.748;2022-10-15T02:18:50;19.27;;;10.40;;
32094;SDS011;18608;53.688;10.748;2022-10-15T02:24:28;18.87;;;10.27;;
32094;SDS011;18608;53.688;10.748;2022-10-15T02:27:00;22.37;;;11.90;;
32094;SDS011;18608;53.688;10.748;2022-10-15T02:29:28;18.10;;;11.93;;
32094;SDS011;18608;53.688;10.748;2022-10-15T02:31:58;21.97;;;12.73;;
32094;SDS011;18608;53.688;10.748;2022-10-15T02:34:26;25.07;;;12.63;;
32094;SDS011;18608;53.688;10.748;2022-10-15T02:36:56;24.30;;;13.30;;
32094;SDS011;18608;53.688;10.748;2022-10-15T02:39:24;24.10;;;14.37;;
32094;SDS011;18608;53.688;10.748;2022-10-15T02:41:50;20.53;;;11.90;;
32094;SDS011;18608;53.688;10.748;2022-10-15T02:44:17;24.30;;;14.30;;
32094;SDS011;18608;53.688;10.748;2022-10-15T02:46:43;21.30;;;13.13;;
32094;SDS011;18608;53.688;10.748;2022-10-15T02:49:09;21.50;;;14.13;;
32094;SDS011;18608;53.688;10.748;2022-10-15T02:51:35;30.13;;;13.70;;
32094;SDS011;18608;53.688;10.748;2022-10-15T02:54:02;25.43;;;14.77;;
32094;SDS011;18608;53.688;10.748;2022-10-15T02:56:29;28.43;;;14.80;;
32094;SDS011;18608;53.688;10.748;2022-10-15T02:58:55;25.20;;;14.07;;
32094;SDS011;18608;53.688;10.748;2022-10-15T03:01:21;32.67;;;16.30;;
32094;SDS011;18608;53.688;10.748;2022-10-15T03:03:47;30.00;;;14.47;;
32094;SDS011;18608;53.688;10.748;2022-10-15T03:06:13;29.50;;;15.17;;
32094;SDS011;18608;53.688;10.748;2022-10-15T03:08:39;27.50;;;15.70;;
32094;SDS011;18608;53.688;10.748;2022-10-15T03:11:06;33.37;;;16.60;;
32094;SDS011;18608;53.688;10.748;2022-10-15T03:13:36;31.23;;;17.50;;
32094;SDS011;18608;53.688;10.748;2022-10-15T03:16:03;35.33;;;18.10;;
32094;SDS011;18608;53.688;10.748;2022-10-15T03:18:30;31.47;;;17.70;;
32094;SDS011;18608;53.688;10.748;2022-10-15T03:20:56;35.33;;;20.43;;
32094;SDS011;18608;53.688;10.748;2022-10-15T03:23:22;32.13;;;19.63;;
32094;SDS011;18608;53.688;10.748;2022-10-15T03:25:48;42.30;;;20.80;;
32094;SDS011;18608;53.688;10.748;2022-10-15T03:28:14;39.90;;;20.00;;
32094;SDS011;18608;53.688;10.748;2022-10-15T03:30:43;42.50;;;23.13;;
32094;SDS011;18608;53.688;10.748;2022-10-15T03:33:09;43.00;;;24.60;;
32094;SDS011;18608;53.688;10.748;2022-10-15T03:35:35;45.70;;;21.87;;
32094;SDS011;18608;53.688;10.748;2022-10-15T03:38:01;56.57;;;23.73;;
32094;SDS011;18608;53.688;10.748;2022-10-15T03:40:27;54.07;;;25.33;;
32094;SDS011;18608;53.688;10.748;2022-10-15T03:42:53;40.90;;;21.43;;
32094;SDS011;18608;53.688;10.748;2022-10-15T03:45:20;41.80;;;22.67;;
32094;SDS011;18608;53.688;10.748;2022-10-15T03:47:47;49.33;;;25.00;;
32094;SDS011;18608;53.688;10.748;2022-10-15T03:50:13;55.00;;;25.67;;
32094;SDS011;18608;53.688;10.748;2022-10-15T03:52:39;46.00;;;23.20;;
32094;SDS011;18608;53.688;10.748;2022-10-15T03:55:05;51.50;;;24.93;;
32094;SDS011;18608;53.688;10.748;2022-10-15T03:57:32;49.73;;;24.70;;
32094;SDS011;18608;53.688;10.748;2022-10-15T03:59:58;50.57;;;23.30;;
32094;SDS011;18608;53.688;10.748;2022-10-15T04:02:24;51.17;;;22.63;;
32094;SDS011;18608;53.688;10.748;2022-10-15T04:04:50;56.77;;;25.50;;
32094;SDS011;18608;53.688;10.748;2022-10-15T04:07:17;54.97;;;25.90;;
32094;SDS011;18608;53.688;10.748;2022-10-15T04:09:43;49.17;;;25.33;;
32094;SDS011;18608;53.688;10.748;2022-10-15T04:12:09;55.20;;;28.50;;
32094;SDS011;18608;53.688;10.748;2022-10-15T04:14:35;63.00;;;26.97;;
32094;SDS011;18608;53.688;10.748;2022-10-15T04:17:01;49.53;;;25.70;;
32094;SDS011;18608;53.688;10.748;2022-10-15T04:19:27;56.07;;;24.77;;
32094;SDS011;18608;53.688;10.748;2022-10-15T04:21:53;53.83;;;26.83;;
32094;SDS011;18608;53.688;10.748;2022-10-15T04:24:19;66.43;;;26.97;;
32094;SDS011;18608;53.688;10.748;2022-10-15T04:26:45;62.03;;;28.13;;
32094;SDS011;18608;53.688;10.748;2022-10-15T04:29:11;55.77;;;27.63;;
32094;SDS011;18608;53.688;10.748;2022-10-15T04:31:37;58.90;;;26.07;;
32094;SDS011;18608;53.688;10.748;2022-10-15T04:34:03;63.07;;;25.90;;
32094;SDS011;18608;53.688;10.748;2022-10-15T04:36:29;61.83;;;25.53;;
32094;SDS011;18608;53.688;10.748;2022-10-15T04:38:55;60.50;;;28.20;;
32094;SDS011;18608;53.688;10.748;2022-10-15T04:41:21;60.30;;;26.17;;
32094;SDS011;18608;53.688;10.748;2022-10-15T04:43:47;55.53;;;26.67;;
32094;SDS011;18608;53.688;10.748;2022-10-15T04:46:13;57.90;;;27.67;;
32094;SDS011;18608;53.688;10.748;2022-10-15T04:48:39;63.77;;;29.50;;
32094;SDS011;18608;53.688;10.748;2022-10-15T04:51:10;64.20;;;27.90;;
32094;SDS011;18608;53.688;10.748;2022-10-15T04:53:40;68.20;;;27.33;;
32094;SDS011;18608;53.688;10.748;2022-10-15T04:56:08;61.43;;;26.50;;
32094;SDS011;18608;53.688;10.748;2022-10-15T04:58:37;51.30;;;24.43;;
32094;SDS011;18608;53.688;10.748;2022-10-15T05:01:07;62.93;;;27.17;;
32094;SDS011;18608;53.688;10.748;2022-10-15T05:03:37;53.37;;;25.23;;
32094;SDS011;18608;53.688;10.748;2022-10-15T05:06:06;56.07;;;27.27;;
32094;SDS011;18608;53.688;10.748;2022-10-15T05:08:34;55.03;;;23.73;;
32094;SDS011;18608;53.688;10.748;2022-10-15T05:11:04;53.07;;;26.13;;
32094;SDS011;18608;53.688;10.748;2022-10-15T05:13:31;55.97;;;26.30;;
32094;SDS011;18608;53.688;10.748;2022-10-15T05:16:07;51.13;;;24.83;;
32094;SDS011;18608;53.688;10.748;2022-10-15T05:18:44;61.80;;;26.50;;
32094;SDS011;18608;53.688;10.748;2022-10-15T05:21:11;59.07;;;27.23;;
32094;SDS011;18608;53.688;10.748;2022-10-15T05:23:37;60.77;;;28.00;;
32094;SDS011;18608;53.688;10.748;2022-10-15T05:26:04;61.30;;;28.00;;
32094;SDS011;18608;53.688;10.748;2022-10-15T05:28:32;69.33;;;29.80;;
32094;SDS011;18608;53.688;10.748;2022-10-15T05:31:05;70.30;;;27.27;;
32094;SDS011;18608;53.688;10.748;2022-10-15T05:33:32;60.17;;;26.20;;
32094;SDS011;18608;53.688;10.748;2022-10-15T05:36:06;64.30;;;26.63;;
32094;SDS011;18608;53.688;10.748;2022-10-15T05:38:33;57.83;;;27.50;;
32094;SDS011;18608;53.688;10.748;2022-10-15T05:40:59;54.40;;;26.10;;
32094;SDS011;18608;53.688;10.748;2022-10-15T05:43:25;59.83;;;26.67;;
32094;SDS011;18608;53.688;10.748;2022-10-15T05:45:54;75.07;;;27.83;;
32094;SDS011;18608;53.688;10.748;2022-10-15T05:48:20;74.40;;;30.03;;
32094;SDS011;18608;53.688;10.748;2022-10-15T05:50:46;66.53;;;26.50;;
32094;SDS011;18608;53.688;10.748;2022-10-15T05:53:12;74.67;;;31.53;;
32094;SDS011;18608;53.688;10.748;2022-10-15T05:55:38;69.40;;;29.17;;
32094;SDS011;18608;53.688;10.748;2022-10-15T05:58:04;64.20;;;26.20;;
32094;SDS011;18608;53.688;10.748;2022-10-15T06:00:30;73.07;;;29.83;;
32094;SDS011;18608;53.688;10.748;2022-10-15T06:02:56;59.87;;;26.97;;
32094;SDS011;18608;53.688;10.748;2022-10-15T06:05:22;66.10;;;28.03;;
32094;SDS011;18608;53.688;10.748;2022-10-15T06:07:48;60.50;;;26.77;;
32094;SDS011;18608;53.688;10.748;2022-10-15T06:10:14;64.13;;;26.30;;
32094;SDS011;18608;53.688;10.748;2022-10-15T06:12:41;58.97;;;26.57;;
32094;SDS011;18608;53.688;10.748;2022-10-15T06:15:08;62.47;;;25.27;;
32094;SDS011;18608;53.688;10.748;2022-10-15T06:17:34;61.00;;;24.27;;
32094;SDS011;18608;53.688;10.748;2022-10-15T06:20:00;54.63;;;24.23;;
32094;SDS011;18608;53.688;10.748;2022-10-15T06:22:25;57.90;;;23.43;;
32094;SDS011;18608;53.688;10.748;2022-10-15T06:24:54;51.53;;;25.03;;
32094;SDS011;18608;53.688;10.748;2022-10-15T06:27:20;48.17;;;24.60;;
32094;SDS011;18608;53.688;10.748;2022-10-15T06:29:46;53.47;;;25.90;;
32094;SDS011;18608;53.688;10.748;2022-10-15T06:32:12;52.60;;;25.20;;
32094;SDS011;18608;53.688;10.748;2022-10-15T06:34:38;47.93;;;24.13;;
32094;SDS011;18608;53.688;10.748;2022-10-15T06:37:04;49.33;;;23.60;;
32094;SDS011;18608;53.688;10.748;2022-10-15T06:39:30;48.17;;;22.50;;
32094;SDS011;18608;53.688;10.748;2022-10-15T06:41:56;51.70;;;22.97;;
32094;SDS011;18608;53.688;10.748;2022-10-15T06:44:22;49.37;;;22.07;;
32094;SDS011;18608;53.688;10.748;2022-10-15T06:46:48;56.90;;;22.33;;
32094;SDS011;18608;53.688;10.748;2022-10-15T06:49:14;53.90;;;22.13;;
32094;SDS011;18608;53.688;10.748;2022-10-15T06:51:40;50.73;;;21.90;;
32094;SDS011;18608;53.688;10.748;2022-10-15T06:54:06;50.83;;;20.90;;
32094;SDS011;18608;53.688;10.748;2022-10-15T06:56:32;53.07;;;22.67;;
32094;SDS011;18608;53.688;10.748;2022-10-15T06:58:58;41.77;;;21.10;;
32094;SDS011;18608;53.688;10.748;2022-10-15T07:01:24;46.23;;;20.50;;
32094;SDS011;18608;53.688;10.748;2022-10-15T07:03:50;50.90;;;21.10;;
32094;SDS011;18608;53.688;10.748;2022-10-15T07:06:17;45.40;;;21.33;;
32094;SDS011;18608;53.688;10.748;2022-10-15T07:08:42;58.73;;;22.83;;
32094;SDS011;18608;53.688;10.748;2022-10-15T07:11:10;43.50;;;21.93;;
32094;SDS011;18608;53.688;10.748;2022-10-15T07:13:36;50.40;;;22.40;;
32094;SDS011;18608;53.688;10.748;2022-10-15T07:16:05;46.30;;;20.67;;
32094;SDS011;18608;53.688;10.748;2022-10-15T07:18:33;51.53;;;23.03;;
32094;SDS011;18608;53.688;10.748;2022-10-15T07:20:59;45.00;;;21.77;;
32094;SDS011;18608;53.688;10.748;2022-10-15T07:23:25;48.27;;;22.70;;
32094;SDS011;18608;53.688;10.748;2022-10-15T07:25:51;53.23;;;22.37;;
32094;SDS011;18608;53.688;10.748;2022-10-15T07:28:17;51.90;;;23.93;;
32094;SDS011;18608;53.688;10.748;2022-10-15T07:30:43;44.80;;;20.73;;
32094;SDS011;18608;53.688;10.748;2022-10-15T07:33:09;44.37;;;21.30;;
32094;SDS011;18608;53.688;10.748;2022-10-15T07:35:36;43.93;;;21.17;;
32094;SDS011;18608;53.688;10.748;2022-10-15T07:38:02;46.37;;;21.53;;
32094;SDS011;18608;53.688;10.748;2022-10-15T07:40:28;41.97;;;20.90;;
32094;SDS011;18608;53.688;10.748;2022-10-15T07:42:57;47.60;;;20.83;;
32094;SDS011;18608;53.688;10.748;2022-10-15T07:45:23;49.97;;;22.47;;
32094;SDS011;18608;53.688;10.748;2022-10-15T07:47:50;49.60;;;22.73;;
32094;SDS011;18608;53.688;10.748;2022-10-15T07:50:16;43.30;;;20.43;;
32094;SDS011;18608;53.688;10.748;2022-10-15T07:52:42;44.97;;;22.50;;
32094;SDS011;18608;53.688;10.748;2022-10-15T07:55:07;49.70;;;22.77;;
32094;SDS011;18608;53.688;10.748;2022-10-15T07:57:33;53.73;;;22.97;;
32094;SDS011;18608;53.688;10.748;2022-10-15T07:59:59;44.30;;;21.03;;
32094;SDS011;18608;53.688;10.748;2022-10-15T08:02:25;49.77;;;23.60;;
32094;SDS011;18608;53.688;10.748;2022-10-15T08:04:51;46.10;;;20.10;;
32094;SDS011;18608;53.688;10.748;2022-10-15T08:07:17;41.87;;;20.33;;
32094;SDS011;18608;53.688;10.748;2022-10-15T08:09:43;48.30;;;22.03;;
32094;SDS011;18608;53.688;10.748;2022-10-15T08:12:09;40.57;;;21.07;;
32094;SDS011;18608;53.688;10.748;2022-10-15T08:14:35;43.00;;;20.20;;
32094;SDS011;18608;53.688;10.748;2022-10-15T08:17:03;44.93;;;20.20;;
32094;SDS011;18608;53.688;10.748;2022-10-15T08:19:29;42.43;;;21.37;;
32094;SDS011;18608;53.688;10.748;2022-10-15T08:21:55;56.73;;;20.10;;
32094;SDS011;18608;53.688;10.748;2022-10-15T08:24:22;42.10;;;21.80;;
32094;SDS011;18608;53.688;10.748;2022-10-15T08:26:48;38.07;;;19.70;;
32094;SDS011;18608;53.688;10.748;2022-10-15T08:29:14;47.47;;;20.37;;
32094;SDS011;18608;53.688;10.748;2022-10-15T08:31:39;38.97;;;19.03;;
32094;SDS011;18608;53.688;10.748;2022-10-15T08:34:06;42.83;;;19.17;;
32094;SDS011;18608;53.688;10.748;2022-10-15T08:36:32;38.77;;;18.97;;
32094;SDS011;18608;53.688;10.748;2022-10-15T08:38:58;40.73;;;19.23;;
32094;SDS011;18608;53.688;10.748;2022-10-15T08:44:30;32.00;;;16.57;;
32094;SDS011;18608;53.688;10.748;2022-10-15T08:49:52;38.10;;;20.57;;
32094;SDS011;18608;53.688;10.748;2022-10-15T08:52:24;37.20;;;16.90;;
32094;SDS011;18608;53.688;10.748;2022-10-15T08:54:55;40.60;;;17.73;;
32094;SDS011;18608;53.688;10.748;2022-10-15T09:02:51;29.77;;;15.70;;
32094;SDS011;18608;53.688;10.748;2022-10-15T09:10:58;37.80;;;16.13;;
32094;SDS011;18608;53.688;10.748;2022-10-15T09:13:30;41.10;;;17.40;;
32094;SDS011;18608;53.688;10.748;2022-10-15T09:18:49;33.30;;;15.13;;
32094;SDS011;18608;53.688;10.748;2022-10-15T09:21:19;39.30;;;16.20;;
32094;SDS011;18608;53.688;10.748;2022-10-15T09:23:48;35.80;;;17.20;;
32094;SDS011;18608;53.688;10.748;2022-10-15T09:29:10;39.23;;;15.83;;
32094;SDS011;18608;53.688;10.748;2022-10-15T09:31:49;32.03;;;15.37;;
32094;SDS011;18608;53.688;10.748;2022-10-15T09:36:49;25.03;;;14.03;;
32094;SDS011;18608;53.688;10.748;2022-10-15T09:44:36;29.50;;;13.63;;
32094;SDS011;18608;53.688;10.748;2022-10-15T09:47:13;25.10;;;14.10;;
32094;SDS011;18608;53.688;10.748;2022-10-15T09:49:50;29.23;;;14.00;;
32094;SDS011;18608;53.688;10.748;2022-10-15T09:52:19;37.10;;;15.27;;
32094;SDS011;18608;53.688;10.748;2022-10-15T09:58:07;36.80;;;13.90;;
32094;SDS011;18608;53.688;10.748;2022-10-15T10:00:58;26.57;;;14.17;;
32094;SDS011;18608;53.688;10.748;2022-10-15T10:03:27;21.23;;;12.03;;
32094;SDS011;18608;53.688;10.748;2022-10-15T10:05:58;27.23;;;15.10;;
32094;SDS011;18608;53.688;10.748;2022-10-15T10:08:26;22.83;;;11.77;;
32094;SDS011;18608;53.688;10.748;2022-10-15T10:10:58;19.53;;;11.90;;
32094;SDS011;18608;53.688;10.748;2022-10-15T10:13:45;19.10;;;11.30;;
32094;SDS011;18608;53.688;10.748;2022-10-15T10:16:16;15.13;;;9.23;;
32094;SDS011;18608;53.688;10.748;2022-10-15T10:18:43;19.50;;;10.50;;
32094;SDS011;18608;53.688;10.748;2022-10-15T10:21:35;20.13;;;10.10;;
32094;SDS011;18608;53.688;10.748;2022-10-15T10:26:54;18.63;;;10.00;;
32094;SDS011;18608;53.688;10.748;2022-10-15T10:29:20;15.67;;;9.73;;
32094;SDS011;18608;53.688;10.748;2022-10-15T10:31:47;16.07;;;9.80;;
32094;SDS011;18608;53.688;10.748;2022-10-15T10:34:36;16.70;;;9.57;;
32094;SDS011;18608;53.688;10.748;2022-10-15T10:37:02;14.60;;;8.50;;
32094;SDS011;18608;53.688;10.748;2022-10-15T10:39:29;21.73;;;9.30;;
32094;SDS011;18608;53.688;10.748;2022-10-15T10:49:45;12.23;;;8.23;;
32094;SDS011;18608;53.688;10.748;2022-10-15T10:52:22;21.70;;;10.37;;
32094;SDS011;18608;53.688;10.748;2022-10-15T10:54:57;16.60;;;8.20;;
32094;SDS011;18608;53.688;10.748;2022-10-15T11:02:46;13.00;;;7.03;;
32094;SDS011;18608;53.688;10.748;2022-10-15T11:05:12;16.10;;;8.47;;
32094;SDS011;18608;53.688;10.748;2022-10-15T11:10:25;12.07;;;7.20;;
32094;SDS011;18608;53.688;10.748;2022-10-15T11:15:44;20.57;;;8.40;;
32094;SDS011;18608;53.688;10.748;2022-10-15T11:21:20;8.93;;;6.80;;
32094;SDS011;18608;53.688;10.748;2022-10-15T11:24:08;13.67;;;7.13;;
32094;SDS011;18608;53.688;10.748;2022-10-15T11:26:47;11.03;;;6.77;;
32094;SDS011;18608;53.688;10.748;2022-10-15T11:29:41;9.57;;;7.13;;
32094;SDS011;18608;53.688;10.748;2022-10-15T11:37:37;9.50;;;5.20;;
32094;SDS011;18608;53.688;10.748;2022-10-15T11:46:12;10.30;;;5.07;;
32094;SDS011;18608;53.688;10.748;2022-10-15T11:48:53;9.47;;;5.13;;
32094;SDS011;18608;53.688;10.748;2022-10-15T11:53:51;9.63;;;5.47;;
32094;SDS011;18608;53.688;10.748;2022-10-15T11:56:33;5.60;;;4.57;;
32094;SDS011;18608;53.688;10.748;2022-10-15T11:59:03;5.27;;;4.50;;
32094;SDS011;18608;53.688;10.748;2022-10-15T12:01:47;9.83;;;3.70;;
32094;SDS011;18608;53.688;10.748;2022-10-15T12:04:21;6.93;;;5.50;;
32094;SDS011;18608;53.688;10.748;2022-10-15T12:06:57;14.17;;;5.90;;
32094;SDS011;18608;53.688;10.748;2022-10-15T12:09:28;6.70;;;4.60;;
32094;SDS011;18608;53.688;10.748;2022-10-15T12:14:47;6.67;;;4.53;;
32094;SDS011;18608;53.688;10.748;2022-10-15T12:17:21;6.20;;;4.37;;
32094;SDS011;18608;53.688;10.748;2022-10-15T12:20:00;9.73;;;4.97;;
32094;SDS011;18608;53.688;10.748;2022-10-15T12:30:41;4.90;;;4.03;;
32094;SDS011;18608;53.688;10.748;2022-10-15T12:33:51;6.27;;;4.90;;
32094;SDS011;18608;53.688;10.748;2022-10-15T12:38:59;14.00;;;5.20;;
32094;SDS011;18608;53.688;10.748;2022-10-15T12:41:39;4.83;;;4.33;;
32094;SDS011;18608;53.688;10.748;2022-10-15T12:44:10;9.67;;;4.80;;
32094;SDS011;18608;53.688;10.748;2022-10-15T12:46:42;8.47;;;4.30;;
32094;SDS011;18608;53.688;10.748;2022-10-15T12:51:54;4.93;;;4.40;;
32094;SDS011;18608;53.688;10.748;2022-10-15T12:54:40;13.10;;;4.70;;
32094;SDS011;18608;53.688;10.748;2022-10-15T13:00:00;14.20;;;5.10;;
32094;SDS011;18608;53.688;10.748;2022-10-15T13:02:46;7.63;;;4.50;;
32094;SDS011;18608;53.688;10.748;2022-10-15T13:05:23;5.73;;;4.10;;
32094;SDS011;18608;53.688;10.748;2022-10-15T13:07:51;12.40;;;4.27;;
32094;SDS011;18608;53.688;10.748;2022-10-15T13:10:22;6.10;;;4.70;;
32094;SDS011;18608;53.688;10.748;2022-10-15T13:12:53;6.03;;;4.00;;
32094;SDS011;18608;53.688;10.748;2022-10-15T13:15:22;6.80;;;5.30;;
32094;SDS011;18608;53.688;10.748;2022-10-15T13:17:51;7.33;;;3.67;;
32094;SDS011;18608;53.688;10.748;2022-10-15T13:20:35;7.63;;;4.10;;
32094;SDS011;18608;53.688;10.748;2022-10-15T13:25:41;5.30;;;3.40;;
32094;SDS011;18608;53.688;10.748;2022-10-15T13:31:16;6.53;;;5.23;;
32094;SDS011;18608;53.688;10.748;2022-10-15T13:33:48;12.63;;;3.80;;
32094;SDS011;18608;53.688;10.748;2022-10-15T13:36:20;5.90;;;4.00;;
32094;SDS011;18608;53.688;10.748;2022-10-15T13:38:58;10.20;;;4.10;;
32094;SDS011;18608;53.688;10.748;2022-10-15T13:41:32;5.60;;;3.63;;
32094;SDS011;18608;53.688;10.748;2022-10-15T13:44:00;12.80;;;5.87;;
32094;SDS011;18608;53.688;10.748;2022-10-15T13:46:28;9.63;;;5.60;;
32094;SDS011;18608;53.688;10.748;2022-10-15T13:48:56;6.60;;;4.23;;
32094;SDS011;18608;53.688;10.748;2022-10-15T13:51:29;6.63;;;3.60;;
32094;SDS011;18608;53.688;10.748;2022-10-15T13:53:58;11.97;;;4.80;;
32094;SDS011;18608;53.688;10.748;2022-10-15T13:56:30;4.47;;;3.60;;
32094;SDS011;18608;53.688;10.748;2022-10-15T13:58:57;4.57;;;2.77;;
32094;SDS011;18608;53.688;10.748;2022-10-15T14:01:25;3.63;;;3.20;;
32094;SDS011;18608;53.688;10.748;2022-10-15T14:03:56;8.57;;;4.13;;
32094;SDS011;18608;53.688;10.748;2022-10-15T14:06:27;5.97;;;4.07;;
32094;SDS011;18608;53.688;10.748;2022-10-15T14:09:10;3.47;;;3.03;;
32094;SDS011;18608;53.688;10.748;2022-10-15T14:11:43;6.53;;;3.30;;
32094;SDS011;18608;53.688;10.748;2022-10-15T14:19:46;4.77;;;3.20;;
32094;SDS011;18608;53.688;10.748;2022-10-15T14:22:22;3.00;;;2.70;;
32094;SDS011;18608;53.688;10.748;2022-10-15T14:24:50;3.53;;;3.23;;
32094;SDS011;18608;53.688;10.748;2022-10-15T14:27:19;6.90;;;3.27;;
32094;SDS011;18608;53.688;10.748;2022-10-15T14:29:47;3.40;;;3.10;;
32094;SDS011;18608;53.688;10.748;2022-10-15T14:34:52;3.30;;;3.00;;
32094;SDS011;18608;53.688;10.748;2022-10-15T14:40:07;6.10;;;4.70;;
32094;SDS011;18608;53.688;10.748;2022-10-15T14:42:38;5.83;;;4.17;;
32094;SDS011;18608;53.688;10.748;2022-10-15T14:47:55;8.97;;;4.80;;
32094;SDS011;18608;53.688;10.748;2022-10-15T14:50:33;6.23;;;4.97;;
32094;SDS011;18608;53.688;10.748;2022-10-15T14:53:04;10.70;;;5.20;;
32094;SDS011;18608;53.688;10.748;2022-10-15T14:55:33;8.53;;;7.40;;
32094;SDS011;18608;53.688;10.748;2022-10-15T14:58:14;13.37;;;7.10;;
32094;SDS011;18608;53.688;10.748;2022-10-15T15:00:46;19.43;;;10.00;;
32094;SDS011;18608;53.688;10.748;2022-10-15T15:03:15;10.50;;;6.63;;
32094;SDS011;18608;53.688;10.748;2022-10-15T15:05:49;14.30;;;7.87;;
32094;SDS011;18608;53.688;10.748;2022-10-15T15:08:16;7.63;;;6.83;;
32094;SDS011;18608;53.688;10.748;2022-10-15T15:10:43;8.47;;;6.60;;
32094;SDS011;18608;53.688;10.748;2022-10-15T15:13:16;16.13;;;7.20;;
32094;SDS011;18608;53.688;10.748;2022-10-15T15:15:44;8.27;;;6.63;;
32094;SDS011;18608;53.688;10.748;2022-10-15T15:18:10;10.30;;;6.50;;
32094;SDS011;18608;53.688;10.748;2022-10-15T15:20:37;12.63;;;8.93;;
32094;SDS011;18608;53.688;10.748;2022-10-15T15:23:04;11.80;;;8.10;;
32094;SDS011;18608;53.688;10.748;2022-10-15T15:25:31;10.50;;;7.77;;
32094;SDS011;18608;53.688;10.748;2022-10-15T15:27:59;12.70;;;8.90;;
32094;SDS011;18608;53.688;10.748;2022-10-15T15:30:26;13.50;;;9.30;;
32094;SDS011;18608;53.688;10.748;2022-10-15T15:32:53;13.27;;;8.50;;
32094;SDS011;18608;53.688;10.748;2022-10-15T15:35:53;13.33;;;9.23;;
32094;SDS011;18608;53.688;10.748;2022-10-15T15:38:18;25.83;;;10.87;;
32094;SDS011;18608;53.688;10.748;2022-10-15T15:40:45;13.20;;;9.23;;
32094;SDS011;18608;53.688;10.748;2022-10-15T15:43:11;17.63;;;9.67;;
32094;SDS011;18608;53.688;10.748;2022-10-15T15:45:39;19.67;;;10.43;;
32094;SDS011;18608;53.688;10.748;2022-10-15T15:48:05;14.43;;;10.20;;
32094;SDS011;18608;53.688;10.748;2022-10-15T15:50:31;19.33;;;12.73;;
32094;SDS011;18608;53.688;10.748;2022-10-15T15:52:57;16.60;;;12.53;;
32094;SDS011;18608;53.688;10.748;2022-10-15T15:55:23;15.23;;;10.07;;
32094;SDS011;18608;53.688;10.748;2022-10-15T15:57:48;15.43;;;11.20;;
32094;SDS011;18608;53.688;10.748;2022-10-15T16:00:15;18.00;;;11.70;;
32094;SDS011;18608;53.688;10.748;2022-10-15T16:02:41;18.73;;;10.07;;
32094;SDS011;18608;53.688;10.748;2022-10-15T16:05:07;16.83;;;10.57;;
32094;SDS011;18608;53.688;10.748;2022-10-15T16:07:36;15.43;;;10.00;;
32094;SDS011;18608;53.688;10.748;2022-10-15T16:10:02;15.50;;;10.90;;
32094;SDS011;18608;53.688;10.748;2022-10-15T16:12:30;15.77;;;11.40;;
32094;SDS011;18608;53.688;10.748;2022-10-15T16:14:57;14.93;;;10.40;;
32094;SDS011;18608;53.688;10.748;2022-10-15T16:17:23;24.43;;;12.33;;
32094;SDS011;18608;53.688;10.748;2022-10-15T16:19:49;17.13;;;10.80;;
32094;SDS011;18608;53.688;10.748;2022-10-15T16:22:15;17.27;;;10.83;;
32094;SDS011;18608;53.688;10.748;2022-10-15T16:24:41;17.20;;;11.80;;
32094;SDS011;18608;53.688;10.748;2022-10-15T16:27:06;18.27;;;10.30;;
32094;SDS011;18608;53.688;10.748;2022-10-15T16:29:32;17.30;;;10.73;;
32094;SDS011;18608;53.688;10.748;2022-10-15T16:31:58;15.20;;;9.97;;
32094;SDS011;18608;53.688;10.748;2022-10-15T16:34:23;13.93;;;9.87;;
32094;SDS011;18608;53.688;10.748;2022-10-15T16:36:49;20.37;;;12.07;;
32094;SDS011;18608;53.688;10.748;2022-10-15T16:39:15;20.13;;;12.53;;
32094;SDS011;18608;53.688;10.748;2022-10-15T16:41:40;16.20;;;11.00;;
32094;SDS011;18608;53.688;10.748;2022-10-15T16:44:06;27.33;;;12.00;;
32094;SDS011;18608;53.688;10.748;2022-10-15T16:46:32;18.63;;;10.30;;
32094;SDS011;18608;53.688;10.748;2022-10-15T16:48:57;18.37;;;13.00;;
32094;SDS011;18608;53.688;10.748;2022-10-15T16:51:23;23.00;;;13.60;;